Time;durP1;ratioP1;P1;durP2;ratioP2;P2;SDS_P1;SDS_P2;PMS_P1;PMS_P2;Temp;Humidity;BMP_temperature;BMP_pressure;BME280_temperature;BME280_humidity;BME280_pressure;Samples;Min_cycle;Max_cycle;Signal;HPM_P1;HPM_P2
2023/05/25 00:00:11;;;;;;;;;22.33;16.67;;;;;16.68;48.28;101888.16;5097701;27;45563;-46
2023/05/25 00:02:38;;;;;;;;;18.67;14.33;;;;;16.69;48.77;101903.28;5095044;27;47173;-45
2023/05/25 00:05:04;;;;;;;;;16.00;13.67;;;;;16.65;48.76;101901.91;5097373;27;45425;-57
2023/05/25 00:07:29;;;;;;;;;15.33;12.33;;;;;16.61;48.54;101892.50;5097403;27;45366;-44
2023/05/25 00:09:55;;;;;;;;;24.00;12.67;;;;;16.51;48.91;101889.03;5097806;27;45291;-60
2023/05/25 00:12:20;;;;;;;;;14.00;13.33;;;;;16.46;48.99;101891.38;5096839;27;47166;-47
2023/05/25 00:14:45;;;;;;;;;17.00;10.00;;;;;16.44;48.85;101898.75;5097421;27;45456;-52
2023/05/25 00:17:11;;;;;;;;;14.33;11.00;;;;;16.37;49.16;101885.09;5097451;27;45564;-47
2023/05/25 00:19:41;;;;;;;;;11.33;10.00;;;;;16.31;48.64;101892.94;5097610;27;45498;-51
2023/05/25 00:22:10;;;;;;;;;13.67;12.33;;;;;16.25;49.21;101888.19;5097068;27;46365;-59
2023/05/25 00:24:38;;;;;;;;;14.67;11.33;;;;;16.14;49.57;101875.88;5097377;27;45879;-56
2023/05/25 00:27:05;;;;;;;;;9.00;9.00;;;;;16.18;49.30;101883.47;5097185;27;45360;-52
2023/05/25 00:29:31;;;;;;;;;16.67;12.67;;;;;16.14;50.19;101882.09;5097063;27;45355;-56
2023/05/25 00:31:56;;;;;;;;;11.33;10.67;;;;;16.11;50.00;101887.75;5095520;27;45889;-59
2023/05/25 00:34:22;;;;;;;;;11.00;10.33;;;;;16.07;50.17;101885.53;5096865;27;45315;-57
2023/05/25 00:36:48;;;;;;;;;14.67;11.00;;;;;16.03;50.02;101889.53;5097398;27;45366;-53
2023/05/25 00:39:15;;;;;;;;;13.00;11.00;;;;;15.97;50.70;101885.63;5097440;27;45379;-54
2023/05/25 00:41:46;;;;;;;;;16.67;13.33;;;;;15.96;50.76;101882.06;5096710;27;47193;-58
2023/05/25 00:44:20;;;;;;;;;9.33;7.67;;;;;15.93;50.64;101886.94;5096814;27;45450;-51
2023/05/25 00:46:50;;;;;;;;;20.00;14.33;;;;;15.89;50.87;101894.44;5096917;27;45418;-51
2023/05/25 00:49:18;;;;;;;;;16.33;11.33;;;;;15.85;51.24;101881.50;5097194;27;45806;-58
2023/05/25 00:51:45;;;;;;;;;17.00;10.67;;;;;15.70;50.77;101863.22;5096780;27;47102;-46
2023/05/25 00:54:13;;;;;;;;;18.33;15.33;;;;;15.80;50.72;101892.69;5096902;27;45376;-51
2023/05/25 00:56:40;;;;;;;;;14.33;12.67;;;;;15.77;51.50;101890.28;5096903;27;45504;-59
2023/05/25 00:59:08;;;;;;;;;19.67;14.00;;;;;15.73;51.81;101890.75;5097104;27;45283;-39
2023/05/25 01:01:38;;;;;;;;;16.00;15.00;;;;;15.61;51.89;101874.84;5096477;27;45392;-58
2023/05/25 01:04:08;;;;;;;;;8.00;8.00;;;;;15.66;51.51;101891.34;5096445;27;45445;-53
2023/05/25 01:06:35;;;;;;;;;15.00;11.00;;;;;15.64;52.01;101887.13;5096577;27;45502;-49
2023/05/25 01:09:03;;;;;;;;;14.33;13.67;;;;;15.56;52.01;101877.13;5095252;27;45387;-56
2023/05/25 01:11:33;;;;;;;;;13.00;12.33;;;;;15.57;51.96;101875.28;5096174;27;45418;-53
2023/05/25 01:13:59;;;;;;;;;14.67;12.67;;;;;15.53;52.06;101882.78;5096235;27;45433;-52
2023/05/25 01:16:24;;;;;;;;;11.00;9.67;;;;;15.38;52.84;101865.53;5096616;27;45841;-53
2023/05/25 01:18:51;;;;;;;;;12.67;11.67;;;;;15.47;52.46;101880.75;5096694;27;45270;-59
2023/05/25 01:21:50;;;;;;;;;17.00;12.67;;;;;15.46;52.35;101881.69;5096195;27;47244;-59
2023/05/25 01:24:31;;;;;;;;;14.00;12.00;;;;;15.34;52.48;101861.50;5096437;27;45487;-58
2023/05/25 01:27:12;;;;;;;;;17.00;10.33;;;;;15.39;52.89;101877.97;5096281;27;45446;-59
2023/05/25 01:29:42;;;;;;;;;17.67;14.67;;;;;15.37;53.30;101879.94;5096218;27;45309;-56
2023/05/25 01:32:08;;;;;;;;;18.00;14.67;;;;;15.33;52.74;101886.59;5095861;27;46143;-52
2023/05/25 01:34:34;;;;;;;;;15.67;13.67;;;;;15.30;53.61;101887.75;5094562;27;45359;-55
2023/05/25 01:37:00;;;;;;;;;19.00;15.67;;;;;15.27;53.51;101884.53;5096187;27;45515;-48
2023/05/25 01:39:25;;;;;;;;;13.67;13.67;;;;;15.18;53.76;101876.38;5096432;27;45320;-56
2023/05/25 01:41:51;;;;;;;;;23.00;14.67;;;;;15.21;54.09;101892.16;5095677;27;45316;-61
2023/05/25 01:44:17;;;;;;;;;21.00;12.00;;;;;15.05;53.87;101867.84;5096130;27;45418;-59
2023/05/25 01:46:43;;;;;;;;;14.00;14.00;;;;;15.15;54.33;101890.06;5096005;27;45417;-56
2023/05/25 01:49:25;;;;;;;;;15.00;11.00;;;;;15.13;54.17;101889.38;5096365;27;45390;-59
2023/05/25 01:51:54;;;;;;;;;13.67;13.67;;;;;15.13;54.79;101892.06;5095973;27;46448;-41
2023/05/25 01:54:22;;;;;;;;;12.00;11.00;;;;;15.11;54.48;101898.56;5095749;27;45427;-39
2023/05/25 01:56:50;;;;;;;;;20.67;15.00;;;;;15.08;54.49;101891.66;5096631;27;45534;-39
2023/05/25 01:59:20;;;;;;;;;17.67;14.33;;;;;15.02;54.80;101894.94;5095062;27;45420;-50
2023/05/25 02:01:47;;;;;;;;;15.67;14.67;;;;;15.03;54.98;101898.44;5095782;27;45430;-51
2023/05/25 02:04:14;;;;;;;;;20.67;14.67;;;;;14.97;54.87;101900.72;5095959;27;45422;-42
2023/05/25 02:06:39;;;;;;;;;20.33;15.00;;;;;14.94;55.24;101906.38;5095833;27;45441;-60
2023/05/25 02:09:05;;;;;;;;;17.33;13.67;;;;;14.93;55.32;101898.50;5096219;27;45438;-55
2023/05/25 02:11:30;;;;;;;;;15.67;12.67;;;;;14.86;54.72;101894.72;5095709;27;47123;-39
2023/05/25 02:13:55;;;;;;;;;21.67;14.00;;;;;14.83;55.16;101893.19;5095820;27;45431;-51
2023/05/25 02:16:21;;;;;;;;;17.00;15.67;;;;;14.82;54.44;101898.66;5095760;27;45391;-40
2023/05/25 02:18:46;;;;;;;;;14.67;14.67;;;;;14.79;55.05;101894.47;5096359;27;45327;-59
2023/05/25 02:21:12;;;;;;;;;16.67;14.00;;;;;14.76;53.81;101902.78;5095740;27;46129;-45
2023/05/25 02:23:37;;;;;;;;;12.33;11.00;;;;;14.74;54.17;101904.75;5095626;27;45205;-58
2023/05/25 02:26:03;;;;;;;;;15.67;14.00;;;;;14.65;54.99;101900.28;5096716;27;45808;-38
2023/05/25 02:28:28;;;;;;;;;16.67;14.67;;;;;14.67;54.99;101909.84;5099073;27;45358;-46
2023/05/25 02:30:53;;;;;;;;;13.00;13.00;;;;;14.64;55.24;101902.09;5098629;27;46167;-46
2023/05/25 02:33:19;;;;;;;;;15.33;12.33;;;;;14.62;54.94;101904.09;5098976;27;45400;-46
2023/05/25 02:35:45;;;;;;;;;13.67;12.67;;;;;14.62;54.73;101909.47;5099505;27;45657;-60
2023/05/25 02:38:10;;;;;;;;;17.00;10.67;;;;;14.65;55.05;101911.81;5099447;27;45464;-54
2023/05/25 02:40:35;;;;;;;;;16.67;11.67;;;;;14.66;54.89;101918.91;5099071;27;45389;-59
2023/05/25 02:43:01;;;;;;;;;13.67;13.67;;;;;14.61;54.33;101910.44;5099266;27;45394;-43
2023/05/25 02:45:26;;;;;;;;;11.67;9.33;;;;;14.69;54.62;101921.25;5099021;27;45454;-44
2023/05/25 02:47:51;;;;;;;;;15.67;12.67;;;;;14.69;54.78;101915.06;5099326;27;45426;-46
2023/05/25 02:50:17;;;;;;;;;12.33;11.00;;;;;14.71;54.42;101919.28;5098863;27;45280;-42
2023/05/25 02:52:42;;;;;;;;;13.33;12.67;;;;;14.71;54.34;101924.66;5098935;27;45385;-59
2023/05/25 02:55:09;;;;;;;;;17.67;13.00;;;;;14.71;54.58;101927.34;5099419;27;45409;-45
2023/05/25 02:57:35;;;;;;;;;14.67;11.33;;;;;14.72;54.78;101929.00;5098859;27;45394;-55
2023/05/25 03:00:01;;;;;;;;;11.00;11.00;;;;;14.71;54.55;101931.84;5098528;27;47044;-54
2023/05/25 03:02:27;;;;;;;;;11.33;11.33;;;;;14.67;53.80;101928.59;5098467;27;45511;-54
2023/05/25 03:04:53;;;;;;;;;20.00;9.33;;;;;14.58;55.06;101931.28;5098831;27;45246;-46
2023/05/25 03:07:24;;;;;;;;;11.67;11.00;;;;;14.57;54.89;101937.63;5098970;27;45540;-46
2023/05/25 03:09:49;;;;;;;;;16.00;11.33;;;;;14.51;55.03;101925.69;5098475;27;45415;-58
2023/05/25 03:12:15;;;;;;;;;16.67;14.67;;;;;14.47;55.01;101927.75;5098061;27;45461;-56
2023/05/25 03:14:40;;;;;;;;;15.67;11.67;;;;;14.42;55.30;101931.88;5098671;27;45421;-53
2023/05/25 03:17:05;;;;;;;;;14.33;13.00;;;;;14.39;54.37;101940.16;5098757;27;45473;-54
2023/05/25 03:19:31;;;;;;;;;12.33;11.00;;;;;14.34;55.48;101945.94;5098172;27;46102;-55
2023/05/25 03:21:56;;;;;;;;;13.67;13.67;;;;;14.30;55.40;101941.88;5097212;27;45245;-41
2023/05/25 03:24:21;;;;;;;;;18.00;9.67;;;;;14.28;55.57;101937.63;5098204;27;45767;-57
2023/05/25 03:26:47;;;;;;;;;16.50;13.50;;;;;14.26;55.63;101945.81;5098550;27;45360;-51
2023/05/25 03:29:12;;;;;;;;;15.00;10.67;;;;;14.20;55.41;101946.41;5098180;27;45445;-60
2023/05/25 03:31:37;;;;;;;;;16.33;11.67;;;;;14.19;55.38;101950.03;5097815;27;45313;-52
2023/05/25 03:34:03;;;;;;;;;11.00;8.67;;;;;14.16;55.30;101950.34;5098302;27;45327;-58
2023/05/25 03:36:31;;;;;;;;;167.50;120.75;;;;;14.16;55.61;101961.88;5098179;27;45332;-57
2023/05/25 03:38:56;;;;;;;;;25.33;12.33;;;;;14.12;55.13;101956.97;5097159;27;47112;-59
2023/05/25 03:41:21;;;;;;;;;13.33;10.67;;;;;14.12;55.57;101962.31;5098070;27;45426;-47
2023/05/25 03:43:47;;;;;;;;;17.00;12.33;;;;;14.07;55.45;101953.81;5098358;27;45449;-57
2023/05/25 03:46:12;;;;;;;;;15.00;13.00;;;;;14.08;55.81;101975.13;5098489;27;45544;-55
2023/05/25 03:48:37;;;;;;;;;12.33;12.33;;;;;14.07;56.00;101972.56;5098147;27;45415;-49
2023/05/25 03:51:03;;;;;;;;;14.00;14.00;;;;;14.06;55.88;101977.06;5097964;27;45311;-57
2023/05/25 03:53:28;;;;;;;;;17.33;11.00;;;;;14.04;55.64;101971.03;5098146;27;45415;-48
2023/05/25 03:55:54;;;;;;;;;12.00;12.00;;;;;14.02;56.23;101969.47;5097075;27;45304;-46
2023/05/25 03:58:19;;;;;;;;;15.33;13.33;;;;;13.98;56.23;101963.53;5097505;27;46126;-55
2023/05/25 04:00:47;;;;;;;;;13.33;12.67;;;;;13.97;56.50;101964.53;5097764;27;45451;-52
2023/05/25 04:03:13;;;;;;;;;16.00;12.00;;;;;13.93;56.42;101961.28;5098167;27;45212;-42
2023/05/25 04:05:38;;;;;;;;;21.00;12.67;;;;;13.91;56.39;101965.94;5097825;27;45536;-40
2023/05/25 04:08:05;;;;;;;;;17.00;13.00;;;;;13.88;56.62;101963.53;5097644;27;50133;-53
2023/05/25 04:10:31;;;;;;;;;15.33;12.00;;;;;13.87;56.98;101966.34;5097754;27;45345;-58
2023/05/25 04:12:56;;;;;;;;;14.33;10.67;;;;;13.85;56.55;101965.63;5097668;27;45311;-50
2023/05/25 04:15:21;;;;;;;;;16.33;11.67;;;;;13.82;56.95;101964.09;5097862;27;45436;-44
2023/05/25 04:17:47;;;;;;;;;15.00;11.67;;;;;13.76;56.79;101955.78;5097267;27;46153;-43
2023/05/25 04:20:12;;;;;;;;;17.00;12.33;;;;;13.72;57.28;101950.69;5097706;27;45613;-43
2023/05/25 04:22:37;;;;;;;;;15.33;14.00;;;;;13.77;57.20;101974.34;5097569;27;45368;-56
2023/05/25 04:25:05;;;;;;;;;12.33;12.00;;;;;13.73;56.93;101964.91;5097898;27;45354;-40
2023/05/25 04:27:31;;;;;;;;;17.00;13.67;;;;;13.70;56.87;101960.69;5098225;27;45542;-48
2023/05/25 04:29:57;;;;;;;;;11.00;11.00;;;;;13.69;57.14;101961.69;5098780;27;45418;-50
2023/05/25 04:32:22;;;;;;;;;14.67;11.33;;;;;13.66;57.57;101964.63;5098182;27;45447;-55
2023/05/25 04:34:48;;;;;;;;;10.00;10.00;;;;;13.68;57.14;101969.81;5098080;27;45526;-60
2023/05/25 04:37:13;;;;;;;;;15.33;10.00;;;;;13.69;57.40;101969.72;5097351;27;45367;-57
2023/05/25 04:39:38;;;;;;;;;17.67;16.33;;;;;13.67;57.35;101977.00;5097168;27;45350;-45
2023/05/25 04:42:05;;;;;;;;;10.67;10.67;;;;;13.66;56.99;101975.31;5097143;27;45304;-43
2023/05/25 04:44:31;;;;;;;;;14.00;14.00;;;;;13.66;57.47;101983.34;5097535;27;45440;-57
2023/05/25 04:46:58;;;;;;;;;17.67;14.00;;;;;13.56;57.68;101961.06;5096763;27;46258;-43
2023/05/25 04:49:24;;;;;;;;;12.67;11.33;;;;;13.65;57.63;101983.47;5096639;27;45428;-40
2023/05/25 04:51:50;;;;;;;;;13.33;12.33;;;;;13.65;57.08;101984.34;5097126;27;45394;-42
2023/05/25 04:54:15;;;;;;;;;17.33;11.33;;;;;13.66;56.82;101994.03;5097293;27;45467;-38
2023/05/25 04:56:41;;;;;;;;;21.67;11.00;;;;;13.66;57.62;101990.53;5097453;27;46020;-46
2023/05/25 04:59:06;;;;;;;;;12.00;11.00;;;;;13.65;57.08;101989.69;5097402;27;45430;-38
2023/05/25 05:01:33;;;;;;;;;17.33;13.67;;;;;13.65;57.64;101983.47;5097679;27;45378;-54
2023/05/25 05:03:59;;;;;;;;;13.33;13.00;;;;;13.66;56.99;101980.66;5097630;27;45558;-43
2023/05/25 05:06:25;;;;;;;;;20.00;17.33;;;;;13.65;57.16;101980.78;5096475;27;45518;-38
2023/05/25 05:08:50;;;;;;;;;16.67;9.00;;;;;13.68;57.72;101985.88;5096716;27;45310;-46
2023/05/25 05:11:15;;;;;;;;;12.67;7.67;;;;;13.67;57.51;101985.03;5096902;27;45234;-53
2023/05/25 05:13:41;;;;;;;;;18.00;12.00;;;;;13.66;57.43;101986.00;5096916;27;45377;-61
2023/05/25 05:16:06;;;;;;;;;11.33;7.33;;;;;13.59;57.08;101978.66;5096565;27;46233;-59
2023/05/25 05:18:32;;;;;;;;;14.00;13.00;;;;;13.73;56.63;102005.84;5096354;27;45318;-59
2023/05/25 05:20:57;;;;;;;;;18.67;16.67;;;;;13.74;57.01;102001.38;5096709;27;45627;-52
2023/05/25 05:23:23;;;;;;;;;14.00;12.67;;;;;13.79;56.34;102009.00;5096884;27;45342;-58
2023/05/25 05:25:48;;;;;;;;;14.00;12.00;;;;;13.75;57.28;102005.75;5096683;27;46512;-57
2023/05/25 05:28:13;;;;;;;;;14.00;13.00;;;;;13.83;56.97;102021.94;5096187;27;45466;-57
2023/05/25 05:30:39;;;;;;;;;14.67;13.33;;;;;13.83;56.64;102021.13;5096277;27;45413;-58
2023/05/25 05:33:04;;;;;;;;;16.00;13.67;;;;;13.85;56.99;102013.78;5095166;27;45422;-55
2023/05/25 05:35:30;;;;;;;;;15.33;14.00;;;;;13.90;56.37;102022.22;5096111;27;46865;-60
2023/05/25 05:37:55;;;;;;;;;14.00;12.00;;;;;13.91;56.68;102018.59;5096333;27;45438;-59
2023/05/25 05:40:21;;;;;;;;;20.33;15.33;;;;;13.92;56.92;102010.44;5096223;27;45767;-57
2023/05/25 05:42:46;;;;;;;;;14.67;13.67;;;;;13.90;56.36;102015.06;5096386;27;45355;-58
2023/05/25 05:45:12;;;;;;;;;15.67;14.00;;;;;13.95;56.11;102020.84;5096120;27;46130;-58
2023/05/25 05:47:37;;;;;;;;;14.67;12.00;;;;;14.01;55.83;102016.78;5095640;27;45288;-51
2023/05/25 05:50:03;;;;;;;;;13.00;13.00;;;;;14.02;56.00;102022.97;5096478;27;45352;-56
2023/05/25 05:52:28;;;;;;;;;18.00;15.33;;;;;14.05;55.93;102020.88;5096174;27;45406;-58
2023/05/25 05:54:53;;;;;;;;;15.67;13.00;;;;;14.11;55.96;102032.84;5095719;27;45339;-58
2023/05/25 05:57:19;;;;;;;;;20.00;13.67;;;;;14.14;55.52;102038.75;5096099;27;45239;-61
2023/05/25 05:59:45;;;;;;;;;10.67;8.00;;;;;14.18;55.52;102042.84;5096338;27;45830;-39
2023/05/25 06:02:10;;;;;;;;;14.33;9.00;;;;;14.19;54.73;102041.03;5099150;27;45223;-42
2023/05/25 06:04:37;;;;;;;;;16.33;14.00;;;;;14.23;54.68;102050.47;5098004;27;46008;-39
2023/05/25 06:07:02;;;;;;;;;15.00;12.33;;;;;14.28;54.92;102042.84;5099179;27;45289;-40
2023/05/25 06:09:28;;;;;;;;;14.33;11.33;;;;;14.32;54.89;102052.31;5099039;27;45444;-40
2023/05/25 06:11:53;;;;;;;;;11.33;11.33;;;;;14.37;54.64;102038.53;5099438;27;45485;-39
2023/05/25 06:14:18;;;;;;;;;12.67;12.67;;;;;14.39;54.23;102045.41;5099168;27;46053;-40
2023/05/25 06:16:43;;;;;;;;;14.67;10.67;;;;;14.46;54.39;102072.50;5099154;27;45393;-55
2023/05/25 06:19:09;;;;;;;;;17.67;10.33;;;;;14.51;54.32;102059.56;5099028;27;45344;-56
2023/05/25 06:21:36;;;;;;;;;14.00;9.67;;;;;14.56;54.25;102059.97;5099641;27;45503;-58
2023/05/25 06:24:01;;;;;;;;;15.00;12.33;;;;;14.62;54.10;102050.53;5099096;27;46191;-57
2023/05/25 06:26:27;;;;;;;;;15.33;10.33;;;;;14.71;53.85;102063.09;5099228;27;45852;-40
2023/05/25 06:28:52;;;;;;;;;16.00;10.33;;;;;14.78;53.87;102071.38;5098974;27;45400;-44
2023/05/25 06:31:17;;;;;;;;;10.33;9.00;;;;;14.90;53.51;102067.56;5099529;27;45461;-40
2023/05/25 06:33:43;;;;;;;;;12.00;11.00;;;;;14.98;53.10;102071.22;5096349;27;45564;-51
2023/05/25 06:36:09;;;;;;;;;12.67;10.67;;;;;14.99;53.33;102050.63;5094533;27;45320;-42
2023/05/25 06:38:35;;;;;;;;;12.00;11.67;;;;;15.25;52.64;102064.25;5096617;27;45446;-42
2023/05/25 06:41:02;;;;;;;;;15.00;11.00;;;;;15.44;52.45;102071.41;5096313;27;45560;-41
2023/05/25 06:43:28;;;;;;;;;14.33;10.67;;;;;15.62;52.06;102056.22;5096087;27;46197;-53
2023/05/25 06:45:53;;;;;;;;;15.67;10.33;;;;;15.99;51.46;102059.91;5076191;27;45398;-60
2023/05/25 06:48:19;;;;;;;;;14.00;11.33;;;;;16.97;50.51;102056.34;5075442;27;45398;-53
2023/05/25 06:50:46;;;;;;;;;4.00;3.00;;;;;18.62;47.27;102048.78;5075934;27;45730;-51
2023/05/25 06:53:11;;;;;;;;;12.33;12.33;;;;;20.29;44.87;102043.47;5079054;27;45564;-46
2023/05/25 06:55:36;;;;;;;;;13.33;7.67;;;;;21.75;40.72;102027.72;5095878;27;45400;-42
2023/05/25 06:58:02;;;;;;;;;12.00;10.00;;;;;23.04;39.09;102036.75;5096178;27;45433;-47
2023/05/25 07:00:27;;;;;;;;;16.00;7.00;;;;;23.95;37.41;102033.94;5096196;27;45179;-41
2023/05/25 07:02:53;;;;;;;;;10.00;9.00;;;;;24.58;37.03;102020.91;5082501;27;45937;-43
2023/05/25 07:05:18;;;;;;;;;14.00;10.00;;;;;25.32;34.09;102027.97;5077553;27;45684;-40
2023/05/25 07:07:43;;;;;;;;;16.00;10.00;;;;;26.05;35.53;102019.53;5077893;27;45453;-47
2023/05/25 07:10:09;;;;;;;;;12.25;10.50;;;;;26.74;32.95;102017.81;5077852;27;45420;-41
2023/05/25 07:12:34;;;;;;;;;10.25;8.50;;;;;27.46;30.38;102020.88;5077156;27;45419;-61
2023/05/25 07:15:00;;;;;;;;;12.00;10.00;;;;;28.09;30.23;102028.72;5076561;27;45568;-57
2023/05/25 07:17:25;;;;;;;;;10.75;10.00;;;;;28.73;31.28;102029.00;5077559;27;45645;-59
2023/05/25 07:19:51;;;;;;;;;11.00;7.75;;;;;29.05;29.24;102023.22;5074912;27;45719;-52
2023/05/25 07:22:17;;;;;;;;;24.75;21.50;;;;;29.28;28.19;102019.59;5094156;27;48117;-45
2023/05/25 07:24:44;;;;;;;;;15.60;12.40;;;;;29.80;28.80;102025.94;5086792;27;45442;-57
2023/05/25 07:27:10;;;;;;;;;8.40;7.20;;;;;30.25;27.66;102030.66;5074681;27;45709;-62
2023/05/25 07:29:35;;;;;;;;;8.25;8.00;;;;;30.59;25.85;102025.19;5090942;27;45570;-64
2023/05/25 07:32:01;;;;;;;;;13.75;7.00;;;;;30.94;26.24;102029.63;5077374;27;46130;-56
2023/05/25 07:34:26;;;;;;;;;9.50;8.00;;;;;31.34;24.24;102034.06;5094353;27;45401;-62
2023/05/25 07:36:51;;;;;;;;;7.25;7.00;;;;;31.79;25.11;102017.28;5093910;27;45338;-50
2023/05/25 07:39:17;;;;;;;;;9.25;6.25;;;;;32.13;24.18;102028.94;5094687;27;45315;-56
2023/05/25 07:41:42;;;;;;;;;10.75;7.00;;;;;32.56;23.33;102024.41;5093864;27;46060;-56
2023/05/25 07:44:08;;;;;;;;;7.75;5.50;;;;;32.88;25.77;102021.63;5092167;27;45461;-61
2023/05/25 07:46:33;;;;;;;;;7.00;7.00;;;;;33.37;22.30;102018.59;5074559;27;45520;-55
2023/05/25 07:48:58;;;;;;;;;7.50;6.25;;;;;33.74;23.74;102007.44;5093639;27;45175;-41
2023/05/25 07:51:27;;;;;;;;;6.00;5.00;;;;;34.03;22.37;102014.44;5094182;27;46170;-53
2023/05/25 07:53:55;;;;;;;;;6.40;6.40;;;;;34.43;22.33;102013.66;5093957;27;45969;-55
2023/05/25 07:56:20;;;;;;;;;7.00;4.80;;;;;34.72;23.26;102020.28;5094287;27;45441;-60
2023/05/25 07:58:46;;;;;;;;;8.25;5.75;;;;;35.03;20.70;102028.56;5094104;27;45499;-48
2023/05/25 08:01:11;;;;;;;;;8.00;6.50;;;;;35.51;21.22;102022.59;5093940;27;46636;-59
2023/05/25 08:03:36;;;;;;;;;5.75;5.00;;;;;35.73;20.32;102020.25;5094136;27;45542;-62
2023/05/25 08:06:02;;;;;;;;;9.00;9.00;;;;;35.97;20.80;102032.31;5094048;27;45642;-49
2023/05/25 08:08:27;;;;;;;;;6.50;5.00;;;;;35.88;21.61;101995.25;5094197;27;45586;-48
2023/05/25 08:10:52;;;;;;;;;4.00;3.00;;;;;36.38;19.40;102026.47;5093670;27;46426;-60
2023/05/25 08:13:18;;;;;;;;;13.50;8.25;;;;;36.58;19.91;102021.91;5093112;27;45444;-58
2023/05/25 08:15:43;;;;;;;;;6.75;6.25;;;;;36.86;18.82;102021.06;5093062;27;45706;-55
2023/05/25 08:18:09;;;;;;;;;4.75;4.75;;;;;37.22;18.32;102007.66;5093864;27;46352;-59
2023/05/25 08:20:35;;;;;;;;;4.50;4.50;;;;;37.51;19.41;102019.81;5093293;27;46057;-46
2023/05/25 08:23:00;;;;;;;;;4.00;4.00;;;;;37.56;18.82;102036.41;5093160;27;45387;-61
2023/05/25 08:25:26;;;;;;;;;13.25;9.25;;;;;37.58;19.30;102028.59;5093342;27;45905;-55
2023/05/25 08:27:51;;;;;;;;;5.50;5.50;;;;;37.67;16.76;102024.00;5086363;27;45383;-62
2023/05/25 08:30:16;;;;;;;;;9.25;6.25;;;;;37.98;16.76;102016.09;5086306;27;46063;-61
2023/05/25 08:32:42;;;;;;;;;10.75;9.25;;;;;38.10;17.45;102015.66;5072629;27;45569;-58
2023/05/25 08:35:08;;;;;;;;;6.50;6.00;;;;;38.29;16.79;102019.19;5074276;27;45513;-65
2023/05/25 08:37:34;;;;;;;;;8.40;3.80;;;;;38.46;16.86;102009.50;5083093;27;45518;-63
2023/05/25 08:40:01;;;;;;;;;5.50;4.25;;;;;38.46;17.31;102013.09;5092602;27;46810;-45
2023/05/25 08:42:27;;;;;;;;;2.80;2.80;;;;;38.59;16.26;102009.53;5093493;27;45492;-57
2023/05/25 08:44:53;;;;;;;;;4.20;3.00;;;;;38.68;15.66;102009.63;5091743;27;45379;-54
2023/05/25 08:47:21;;;;;;;;;3.50;3.25;;;;;38.90;16.02;102023.72;5073836;27;45766;-56
2023/05/25 08:49:48;;;;;;;;;4.20;3.60;;;;;38.93;16.14;102023.09;5072595;27;46110;-51
2023/05/25 08:52:20;;;;;;;;;4.00;4.00;;;;;39.05;15.47;102039.28;5085542;27;45512;-40
2023/05/25 08:54:49;;;;;;;;;4.60;4.00;;;;;39.33;14.88;102031.78;5091495;27;45477;-41
2023/05/25 08:57:28;;;;;;;;;5.60;4.00;;;;;39.56;15.09;102017.94;5093069;27;45896;-62
2023/05/25 09:00:11;;;;;;;;;3.20;2.40;;;;;39.73;15.16;102028.44;5092793;27;45559;-58
2023/05/25 09:02:55;;;;;;;;;5.40;3.00;;;;;40.15;15.61;102018.81;5091621;27;45510;-40
2023/05/25 09:05:23;;;;;;;;;3.80;3.80;;;;;40.56;14.39;102020.59;5092891;27;45849;-41
2023/05/25 09:07:50;;;;;;;;;5.00;3.80;;;;;40.96;14.76;102018.69;5093187;27;45729;-41
2023/05/25 09:10:16;;;;;;;;;4.40;3.00;;;;;41.36;14.14;102013.03;5092623;27;46222;-42
2023/05/25 09:12:42;;;;;;;;;3.00;2.60;;;;;41.37;14.21;102017.47;5092692;27;45769;-42
2023/05/25 09:15:11;;;;;;;;;4.00;3.80;;;;;41.30;15.07;102026.34;5075784;27;45609;-46
2023/05/25 09:17:37;;;;;;;;;4.20;3.80;;;;;41.46;14.90;102023.09;5081468;27;45367;-41
2023/05/25 09:20:03;;;;;;;;;6.50;4.00;;;;;41.58;13.90;102023.28;5092567;27;45428;-41
2023/05/25 09:22:28;;;;;;;;;7.80;5.00;;;;;41.72;13.61;102021.19;5092208;27;45502;-40
2023/05/25 09:24:55;;;;;;;;;5.25;4.25;;;;;41.87;13.13;102014.28;5093092;27;45878;-40
2023/05/25 09:27:24;;;;;;;;;5.00;4.60;;;;;42.11;12.88;102011.81;5093246;27;45422;-40
2023/05/25 09:29:50;;;;;;;;;4.00;2.80;;;;;42.27;13.43;102017.75;5092644;27;45829;-41
2023/05/25 09:32:16;;;;;;;;;3.20;3.20;;;;;42.18;13.83;102014.09;5092539;27;45844;-40
2023/05/25 09:34:43;;;;;;;;;2.20;2.20;;;;;42.27;13.79;102009.34;5092019;27;45534;-40
2023/05/25 09:37:13;;;;;;;;;4.00;2.80;;;;;42.56;12.29;102004.97;5092365;27;45463;-41
2023/05/25 09:39:40;;;;;;;;;5.20;2.40;;;;;42.78;12.52;102010.38;5092660;27;46112;-41
2023/05/25 09:42:06;;;;;;;;;5.60;3.20;;;;;42.79;12.61;102012.00;5092533;27;45439;-59
2023/05/25 09:44:31;;;;;;;;;2.75;2.75;;;;;42.76;13.72;102001.47;5129491;27;45416;-57
2023/05/25 09:46:57;;;;;;;;;5.25;3.50;;;;;42.68;13.54;102018.28;5095084;27;45567;-41
2023/05/25 09:49:22;;;;;;;;;11.50;10.25;;;;;42.38;12.22;102014.56;5095829;27;47236;-41
2023/05/25 09:51:48;;;;;;;;;4.25;3.00;;;;;42.41;13.14;102005.53;5094969;27;45510;-44
2023/05/25 09:54:14;;;;;;;;;3.75;3.75;;;;;42.52;12.44;102016.03;5096281;27;45255;-40
2023/05/25 09:56:40;;;;;;;;;7.25;5.00;;;;;42.56;12.24;102010.56;5096430;27;45332;-40
2023/05/25 09:59:06;;;;;;;;;5.00;4.00;;;;;42.49;12.07;101999.91;5095895;27;46359;-40
2023/05/25 10:01:34;;;;;;;;;5.25;3.25;;;;;42.73;12.43;102015.31;5096166;27;45413;-41
2023/05/25 10:04:00;;;;;;;;;3.00;2.80;;;;;42.31;12.02;102021.50;5096094;27;45746;-41
2023/05/25 10:06:26;;;;;;;;;9.00;5.00;;;;;42.33;12.76;102010.00;5096206;27;45440;-41
2023/05/25 10:08:56;;;;;;;;;6.60;4.00;;;;;42.11;12.97;102019.38;5096050;27;46381;-56
2023/05/25 10:11:23;;;;;;;;;4.00;4.00;;;;;42.06;12.31;102017.56;5095743;27;45486;-55
2023/05/25 10:13:52;;;;;;;;;6.40;4.80;;;;;42.16;12.54;102022.00;5096174;27;45429;-61
2023/05/25 10:16:17;;;;;;;;;2.80;2.80;;;;;42.20;13.05;102020.19;5096241;27;45437;-55
2023/05/25 10:18:50;;;;;;;;;6.50;4.00;;;;;42.47;11.82;102024.59;5095722;27;46099;-46
2023/05/25 10:21:17;;;;;;;;;3.80;2.80;;;;;42.68;12.32;102029.50;5095711;27;45391;-58
2023/05/25 10:24:02;;;;;;;;;4.20;3.60;;;;;42.55;13.17;102023.72;5095747;27;45489;-58
2023/05/25 10:26:34;;;;;;;;;5.20;4.00;;;;;42.36;11.93;102026.94;5095943;27;45379;-49
2023/05/25 10:29:03;;;;;;;;;5.60;2.40;;;;;42.13;12.52;102020.66;5095645;27;46390;-39
2023/05/25 10:31:28;;;;;;;;;5.60;3.60;;;;;42.11;12.48;102017.41;5095861;27;45345;-40
2023/05/25 10:33:55;;;;;;;;;3.75;2.25;;;;;41.89;13.62;102031.56;5095502;27;45428;-39
2023/05/25 10:36:22;;;;;;;;;4.20;3.00;;;;;41.50;12.63;102029.69;5095755;27;45354;-46
2023/05/25 10:38:50;;;;;;;;;2.00;2.00;;;;;40.98;12.94;102015.56;5095316;27;47192;-40
2023/05/25 10:41:19;;;;;;;;;22.20;18.20;;;;;40.62;12.76;102027.66;5095379;27;45366;-44
2023/05/25 10:43:45;;;;;;;;;6.60;5.40;;;;;40.38;13.36;102019.63;5095805;27;45360;-40
2023/05/25 10:46:13;;;;;;;;;3.60;3.60;;;;;40.05;13.35;102011.50;5095552;27;45344;-40
2023/05/25 10:48:45;;;;;;;;;5.80;4.60;;;;;39.58;13.46;102021.22;5098862;27;47038;-59
2023/05/25 10:51:11;;;;;;;;;4.20;3.40;;;;;39.10;14.19;102027.22;5098986;27;45330;-40
2023/05/25 10:53:36;;;;;;;;;5.25;5.00;;;;;38.42;13.97;102031.50;5099001;27;45248;-46
2023/05/25 10:56:06;;;;;;;;;4.00;4.00;;;;;36.88;14.89;102012.47;5099205;27;45442;-57
2023/05/25 10:58:32;;;;;;;;;4.00;3.00;;;;;35.32;16.33;102039.81;5098574;27;46628;-49
2023/05/25 11:01:05;;;;;;;;;5.00;4.40;;;;;33.44;17.68;102029.38;5098859;27;45452;-53
2023/05/25 11:03:42;;;;;;;;;3.00;1.00;;;;;32.09;18.24;102035.25;5098683;27;45823;-48
2023/05/25 11:06:09;;;;;;;;;3.20;2.80;;;;;31.04;19.54;102043.50;5098870;27;45420;-57
2023/05/25 11:08:52;;;;;;;;;3.60;3.60;;;;;29.73;21.13;102032.66;5098204;27;47039;-57
2023/05/25 11:11:18;;;;;;;;;5.80;4.00;;;;;28.72;21.77;102040.19;5098274;27;45473;-53